createdAt,value
2023-01-08T00:01:18.419Z,67.22
2023-01-08T00:03:50.425Z,65.72
2023-01-08T00:06:21.935Z,59.67
2023-01-08T00:08:49.367Z,58.60
2023-01-08T00:11:17.242Z,57.60
2023-01-08T00:13:44.644Z,59.13
2023-01-08T00:16:18.007Z,55.92
2023-01-08T00:18:47.414Z,59.63
2023-01-08T00:21:14.984Z,63.88
2023-01-08T00:23:42.517Z,59.53
2023-01-08T00:26:10.773Z,61.95
2023-01-08T00:28:39.488Z,55.33
2023-01-08T00:31:12.727Z,62.55
2023-01-08T00:33:41.089Z,62.40
2023-01-08T00:36:15.949Z,60.90
2023-01-08T00:38:45.704Z,62.60
2023-01-08T00:41:15.190Z,63.15
2023-01-08T00:43:42.774Z,59.72
2023-01-08T00:46:10.180Z,58.60
2023-01-08T00:48:38.905Z,55.42
2023-01-08T00:51:08.775Z,54.10
2023-01-08T00:53:38.081Z,55.97
2023-01-08T00:56:09.727Z,53.10
2023-01-08T00:58:37.129Z,55.08
2023-01-08T01:01:14.791Z,57.30
2023-01-08T01:03:43.340Z,53.83
2023-01-08T01:06:12.529Z,55.90
2023-01-08T01:08:40.702Z,53.53
2023-01-08T01:11:21.051Z,51.08
2023-01-08T01:13:49.049Z,51.45
2023-01-08T01:16:16.187Z,53.17
2023-01-08T01:18:44.392Z,49.05
2023-01-08T01:21:30.018Z,50.00
2023-01-08T01:24:01.427Z,48.53
2023-01-08T01:26:28.964Z,50.25
2023-01-08T01:28:58.328Z,47.22
2023-01-08T01:31:28.841Z,49.25
2023-01-08T01:33:56.891Z,48.78
2023-01-08T01:36:26.064Z,54.75
2023-01-08T01:38:56.707Z,46.85
2023-01-08T01:41:38.623Z,53.60
2023-01-08T01:44:44.623Z,37.38
2023-01-08T01:47:35.690Z,52.78
2023-01-08T01:50:13.443Z,48.33
2023-01-08T01:52:52.270Z,59.72
2023-01-08T01:55:20.426Z,55.20
2023-01-08T01:58:03.411Z,55.55
2023-01-08T02:00:34.033Z,53.85
2023-01-08T02:03:02.321Z,50.10
2023-01-08T02:05:58.170Z,53.65
2023-01-08T02:09:13.111Z,59.80
2023-01-08T02:12:17.762Z,62.75
2023-01-08T02:15:02.786Z,52.75
2023-01-08T02:17:44.332Z,55.67
2023-01-08T02:20:29.891Z,56.47
2023-01-08T02:23:10.712Z,54.80
2023-01-08T02:26:15.661Z,60.60
2023-01-08T02:29:00.859Z,56.80
2023-01-08T02:31:31.740Z,60.40
2023-01-08T02:33:59.852Z,61.72
2023-01-08T02:36:43.539Z,55.95
2023-01-08T02:39:54.348Z,65.65
2023-01-08T02:43:09.722Z,67.65
2023-01-08T02:45:54.912Z,61.88
2023-01-08T02:48:42.709Z,68.38
2023-01-08T02:51:35.180Z,59.88
2023-01-08T02:54:09.188Z,56.78
2023-01-08T02:56:44.738Z,63.60
2023-01-08T02:59:15.629Z,62.30
2023-01-08T03:01:45.562Z,63.42
2023-01-08T03:04:18.923Z,59.78
2023-01-08T03:06:47.113Z,65.68
2023-01-08T03:09:16.190Z,52.13
2023-01-08T03:12:36.459Z,50.08
2023-01-08T03:15:11.711Z,51.90
2023-01-08T03:17:48.419Z,51.47
2023-01-08T03:20:21.617Z,50.95
2023-01-08T03:22:54.238Z,48.83
2023-01-08T03:25:26.735Z,43.63
2023-01-08T03:28:02.889Z,43.72
2023-01-08T03:30:31.352Z,40.00
2023-01-08T03:33:01.806Z,43.80
2023-01-08T03:35:32.219Z,43.58
2023-01-08T03:38:22.363Z,41.72
2023-01-08T03:40:57.530Z,43.78
2023-01-08T03:43:25.549Z,39.38
2023-01-08T03:46:00.096Z,46.10
2023-01-08T03:48:32.259Z,47.42
2023-01-08T03:51:00.051Z,45.53
2023-01-08T03:53:28.401Z,43.95
2023-01-08T03:55:57.586Z,41.28
2023-01-08T03:58:24.832Z,40.72
2023-01-08T04:00:52.604Z,42.97
2023-01-08T04:03:19.979Z,40.20
2023-01-08T04:05:47.199Z,41.80
2023-01-08T04:08:14.331Z,40.85
2023-01-08T04:10:41.444Z,37.65
2023-01-08T04:13:08.662Z,41.45
2023-01-08T04:15:35.625Z,41.47
2023-01-08T04:18:02.836Z,41.10
2023-01-08T04:20:29.776Z,42.03
2023-01-08T04:22:57.021Z,42.13
2023-01-08T04:25:24.044Z,38.15
2023-01-08T04:27:51.324Z,39.20
2023-01-08T04:30:18.314Z,42.05
2023-01-08T04:32:45.663Z,41.45
2023-01-08T04:35:13.258Z,34.03
2023-01-08T04:37:40.476Z,33.47
2023-01-08T04:40:08.250Z,38.13
2023-01-08T04:42:35.510Z,38.67
2023-01-08T04:45:02.503Z,37.25
2023-01-08T04:47:29.721Z,35.25
2023-01-08T04:49:56.881Z,35.25
2023-01-08T04:52:24.075Z,35.42
2023-01-08T04:54:51.187Z,36.90
2023-01-08T04:57:18.523Z,37.83
2023-01-08T04:59:45.440Z,38.60
2023-01-08T05:02:12.935Z,36.30
2023-01-08T05:04:40.132Z,40.63
2023-01-08T05:07:07.892Z,36.10
2023-01-08T05:09:34.880Z,37.90
2023-01-08T05:12:02.454Z,34.60
2023-01-08T05:14:29.440Z,36.83
2023-01-08T05:16:56.733Z,34.65
2023-01-08T05:19:23.749Z,37.00
2023-01-08T05:21:50.942Z,39.00
2023-01-08T05:24:17.895Z,40.45
2023-01-08T05:26:45.061Z,38.78
2023-01-08T05:29:12.255Z,41.60
2023-01-08T05:31:39.483Z,47.22
2023-01-08T05:34:06.591Z,43.15
2023-01-08T05:36:33.837Z,43.70
2023-01-08T05:39:00.892Z,46.30
2023-01-08T05:41:28.467Z,47.13
2023-01-08T05:43:55.745Z,54.35
2023-01-08T05:46:23.104Z,53.58
2023-01-08T05:48:50.145Z,61.10
2023-01-08T05:51:17.340Z,51.53
2023-01-08T05:53:45.131Z,54.58
2023-01-08T05:56:12.513Z,58.60
2023-01-08T05:58:39.568Z,56.45
2023-01-08T06:01:11.937Z,52.72
2023-01-08T06:03:40.077Z,51.85
2023-01-08T06:06:08.658Z,50.63
2023-01-08T06:08:36.530Z,50.30
2023-01-08T06:11:08.038Z,50.75
2023-01-08T06:13:37.750Z,48.53
2023-01-08T06:16:05.555Z,48.45
2023-01-08T06:18:32.895Z,47.75
2023-01-08T06:21:01.310Z,46.00
2023-01-08T06:23:28.516Z,49.90
2023-01-08T06:25:58.528Z,48.40
2023-01-08T06:28:27.224Z,50.75
2023-01-08T06:30:57.181Z,56.13
2023-01-08T06:33:24.338Z,55.85
2023-01-08T06:35:51.622Z,51.80
2023-01-08T06:38:19.293Z,52.00
2023-01-08T06:40:47.784Z,56.47
2023-01-08T06:43:15.434Z,56.35
2023-01-08T06:45:42.760Z,57.00
2023-01-08T06:48:09.777Z,51.17
2023-01-08T06:50:37.031Z,49.63
2023-01-08T06:53:04.026Z,53.63
2023-01-08T06:55:31.262Z,53.88
2023-01-08T06:57:59.258Z,51.47
2023-01-08T07:00:27.453Z,52.15
2023-01-08T07:02:55.509Z,54.47
2023-01-08T07:05:24.013Z,55.17
2023-01-08T07:07:51.322Z,52.20
2023-01-08T07:10:20.057Z,49.80
2023-01-08T07:12:48.652Z,48.60
2023-01-08T07:15:16.585Z,53.80
2023-01-08T07:17:43.603Z,50.22
2023-01-08T07:20:11.334Z,54.05
2023-01-08T07:22:38.368Z,57.25
2023-01-08T07:25:07.138Z,60.95
2023-01-08T07:27:34.173Z,57.83
2023-01-08T07:30:01.345Z,59.17
2023-01-08T07:32:28.352Z,55.85
2023-01-08T07:34:59.008Z,57.65
2023-01-08T07:37:26.558Z,54.75
2023-01-08T07:39:53.917Z,49.35
2023-01-08T07:42:20.965Z,54.95
2023-01-08T07:44:48.174Z,53.20
2023-01-08T07:47:15.468Z,51.97
2023-01-08T07:49:42.694Z,51.15
2023-01-08T07:52:13.358Z,53.00
2023-01-08T07:54:41.067Z,52.28
2023-01-08T07:57:08.138Z,48.30
2023-01-08T07:59:35.394Z,50.65
2023-01-08T08:02:03.409Z,43.58
2023-01-08T08:04:30.799Z,43.05
2023-01-08T08:06:57.769Z,43.67
2023-01-08T08:09:25.228Z,41.10
2023-01-08T08:11:52.273Z,42.20
2023-01-08T08:14:19.508Z,39.75
2023-01-08T08:16:46.492Z,43.33
2023-01-08T08:19:15.656Z,45.35
2023-01-08T08:21:42.763Z,42.90
2023-01-08T08:24:10.223Z,45.33
2023-01-08T08:26:37.310Z,53.05
2023-01-08T08:29:04.492Z,64.43
2023-01-08T08:31:31.495Z,48.40
2023-01-08T08:33:58.711Z,48.30
2023-01-08T08:36:30.497Z,45.65
2023-01-08T08:38:57.793Z,41.58
2023-01-08T08:41:24.861Z,41.22
2023-01-08T08:43:52.012Z,40.95
2023-01-08T08:46:19.273Z,40.97
2023-01-08T08:48:46.958Z,34.85
2023-01-08T08:51:15.149Z,33.78
2023-01-08T08:53:42.778Z,35.22
2023-01-08T08:56:09.750Z,34.50
2023-01-08T08:58:37.056Z,31.10
2023-01-08T09:01:06.280Z,31.42
2023-01-08T09:03:34.171Z,35.17
2023-01-08T09:06:01.356Z,35.67
2023-01-08T09:08:28.637Z,31.48
2023-01-08T09:10:55.699Z,33.97
2023-01-08T09:13:23.020Z,34.10
2023-01-08T09:15:50.072Z,33.95
2023-01-08T09:18:17.462Z,31.70
2023-01-08T09:20:44.435Z,30.77
2023-01-08T09:23:11.951Z,32.83
2023-01-08T09:25:39.164Z,37.67
2023-01-08T09:28:11.993Z,34.00
2023-01-08T09:33:07.927Z,29.35
2023-01-08T09:35:35.101Z,30.52
2023-01-08T09:38:03.197Z,33.92
2023-01-08T09:40:42.981Z,34.35
2023-01-08T09:43:19.950Z,32.65
2023-01-08T09:45:55.406Z,28.13
2023-01-08T09:48:29.537Z,27.67
2023-01-08T09:50:57.951Z,33.92
2023-01-08T09:53:26.015Z,30.10
2023-01-08T09:56:10.298Z,29.05
2023-01-08T09:58:51.024Z,26.20
2023-01-08T10:01:27.153Z,25.63
2023-01-08T10:04:19.380Z,24.85
2023-01-08T10:07:21.253Z,28.02
2023-01-08T10:09:50.195Z,23.55
2023-01-08T10:12:27.380Z,24.75
2023-01-08T10:15:01.727Z,21.75
2023-01-08T10:17:41.962Z,26.90
2023-01-08T10:20:25.654Z,24.23
2023-01-08T10:22:54.309Z,26.60
2023-01-08T10:25:25.920Z,25.10
2023-01-08T10:28:02.975Z,25.90
2023-01-08T10:30:37.891Z,25.05
2023-01-08T10:33:19.550Z,27.55
2023-01-08T10:35:57.691Z,25.10
2023-01-08T10:38:35.572Z,24.88
2023-01-08T10:41:10.648Z,25.55
2023-01-08T10:43:55.100Z,25.08
2023-01-08T10:46:24.915Z,25.75
2023-01-08T10:48:57.424Z,27.42
2023-01-08T10:51:31.387Z,25.55
2023-01-08T10:54:23.491Z,50.38
2023-01-08T10:56:50.711Z,52.10
2023-01-08T10:59:23.819Z,46.40
2023-01-08T11:01:56.349Z,49.03
2023-01-08T11:04:36.187Z,42.35
2023-01-08T11:07:07.323Z,32.67
2023-01-08T11:09:48.605Z,45.15
2023-01-08T11:12:33.051Z,37.22
2023-01-08T11:15:00.782Z,49.97
2023-01-08T11:17:34.588Z,46.10
2023-01-08T11:20:30.695Z,46.28
2023-01-08T11:23:27.839Z,47.97
2023-01-08T11:26:14.223Z,33.13
2023-01-08T11:29:04.465Z,34.10
2023-01-08T11:32:10.665Z,27.80
2023-01-08T11:35:03.412Z,26.42
2023-01-08T11:37:45.833Z,32.17
2023-01-08T11:40:44.411Z,26.30
2023-01-08T11:43:54.481Z,27.48
2023-01-08T11:46:46.166Z,25.13
2023-01-08T11:50:03.697Z,21.10
2023-01-08T11:53:32.128Z,28.73
2023-01-08T11:56:20.569Z,24.80
2023-01-08T11:59:08.801Z,26.58
2023-01-08T12:01:53.406Z,28.48
2023-01-08T12:04:20.673Z,21.80
2023-01-08T12:07:05.797Z,24.70
2023-01-08T12:10:16.841Z,20.92
2023-01-08T12:13:08.265Z,19.38
2023-01-08T12:16:09.039Z,18.33
2023-01-08T12:19:00.485Z,16.80
2023-01-08T12:21:37.491Z,17.38
2023-01-08T12:24:51.890Z,22.33
2023-01-08T12:27:58.354Z,21.70
2023-01-08T12:30:49.899Z,25.17
2023-01-08T12:33:39.372Z,27.00
2023-01-08T12:36:14.384Z,23.70
2023-01-08T12:38:45.009Z,21.02
2023-01-08T12:41:19.439Z,22.67
2023-01-08T12:43:56.269Z,20.50
2023-01-08T12:46:25.902Z,18.30
2023-01-08T12:48:56.322Z,19.90
2023-01-08T12:51:41.395Z,17.88
2023-01-08T12:54:31.839Z,20.40
2023-01-08T12:57:31.798Z,17.88
2023-01-08T13:00:17.345Z,16.00
2023-01-08T13:03:04.222Z,17.65
2023-01-08T13:05:37.756Z,16.33
2023-01-08T13:08:34.833Z,17.50
2023-01-08T13:11:03.978Z,16.30
2023-01-08T13:13:45.165Z,16.02
2023-01-08T13:16:14.246Z,15.77
2023-01-08T13:18:50.715Z,22.75
2023-01-08T13:21:18.525Z,14.18
2023-01-08T13:23:45.562Z,15.45
2023-01-08T13:26:13.307Z,15.43
2023-01-08T13:28:45.560Z,15.38
2023-01-08T13:33:52.495Z,16.45
2023-01-08T13:36:30.386Z,14.95
2023-01-08T13:39:06.531Z,15.35
2023-01-08T13:41:59.682Z,18.35
2023-01-08T13:44:35.943Z,13.75
2023-01-08T13:47:17.427Z,14.00
2023-01-08T13:49:53.251Z,12.82
2023-01-08T13:52:40.563Z,16.38
2023-01-08T13:55:17.803Z,14.93
2023-01-08T13:57:57.548Z,12.80
2023-01-08T14:00:35.948Z,15.43
2023-01-08T14:03:29.842Z,12.73
2023-01-08T14:06:21.142Z,13.13
2023-01-08T14:08:58.900Z,14.45
2023-01-08T14:11:38.667Z,19.48
2023-01-08T14:14:11.267Z,16.67
2023-01-08T14:16:38.397Z,20.70
2023-01-08T14:19:06.120Z,27.48
2023-01-08T14:21:34.295Z,23.83
2023-01-08T14:24:01.605Z,27.17
2023-01-08T14:26:35.966Z,47.55
2023-01-08T14:29:16.684Z,41.58
2023-01-08T14:31:53.533Z,36.00
2023-01-08T14:34:25.323Z,34.72
2023-01-08T14:36:55.747Z,35.47
2023-01-08T14:39:32.340Z,32.28
2023-01-08T14:42:28.339Z,30.73
2023-01-08T14:45:05.968Z,29.50
2023-01-08T14:47:49.451Z,30.85
2023-01-08T14:50:29.733Z,28.13
2023-01-08T14:53:27.635Z,28.10
2023-01-08T14:55:57.338Z,25.38
2023-01-08T14:58:29.739Z,26.40
2023-01-08T15:03:42.644Z,24.95
2023-01-08T15:06:11.541Z,24.67
2023-01-08T15:08:40.845Z,24.67
2023-01-08T15:11:25.887Z,22.08
2023-01-08T15:13:55.149Z,24.23
2023-01-08T15:16:42.814Z,20.63
2023-01-08T15:19:39.313Z,21.50
2023-01-08T15:22:18.568Z,21.70
2023-01-08T15:24:59.344Z,22.10
2023-01-08T15:27:28.456Z,21.80
2023-01-08T15:30:04.013Z,25.40
2023-01-08T15:32:36.508Z,23.55
2023-01-08T15:35:18.582Z,22.98
2023-01-08T15:37:45.986Z,24.58
2023-01-08T15:40:13.641Z,26.50
2023-01-08T15:42:59.711Z,26.30
2023-01-08T15:45:32.336Z,25.00
2023-01-08T15:48:00.285Z,24.90
2023-01-08T15:50:29.001Z,23.95
2023-01-08T15:52:57.381Z,26.27
2023-01-08T15:55:25.291Z,22.20
2023-01-08T15:57:52.772Z,24.55
2023-01-08T16:00:22.420Z,28.30
2023-01-08T16:02:52.874Z,27.13
2023-01-08T16:05:23.859Z,27.45
2023-01-08T16:07:51.074Z,24.92
2023-01-08T16:10:18.644Z,25.38
2023-01-08T16:12:45.958Z,23.75
2023-01-08T16:15:15.149Z,25.50
2023-01-08T16:17:44.298Z,23.17
2023-01-08T16:20:13.802Z,26.85
2023-01-08T16:22:41.658Z,25.45
2023-01-08T16:25:10.035Z,28.83
2023-01-08T16:27:38.354Z,30.33
2023-01-08T16:30:10.392Z,30.33
2023-01-08T16:32:37.723Z,29.65
2023-01-08T16:35:05.271Z,31.63
2023-01-08T16:37:32.513Z,35.60
2023-01-08T16:39:59.440Z,36.20
2023-01-08T16:42:26.853Z,31.70
2023-01-08T16:44:53.907Z,32.13
2023-01-08T16:47:21.208Z,36.13
2023-01-08T16:49:50.271Z,34.83
2023-01-08T16:52:18.063Z,31.30
2023-01-08T16:54:46.350Z,31.98
2023-01-08T16:57:14.487Z,33.42
2023-01-08T16:59:41.566Z,32.97
2023-01-08T17:02:10.532Z,32.03
2023-01-08T17:04:37.780Z,35.53
2023-01-08T17:07:05.227Z,33.70
2023-01-08T17:09:32.552Z,35.90
2023-01-08T17:11:59.814Z,35.17
2023-01-08T17:14:26.840Z,33.95
2023-01-08T17:16:54.110Z,35.63
2023-01-08T17:19:21.619Z,33.70
2023-01-08T17:21:50.608Z,36.90
2023-01-08T17:24:17.717Z,44.70
2023-01-08T17:26:45.028Z,41.78
2023-01-08T17:29:12.026Z,42.35
2023-01-08T17:31:40.111Z,42.00
2023-01-08T17:34:13.053Z,41.28
2023-01-08T17:36:40.831Z,44.47
2023-01-08T17:39:08.187Z,43.05
2023-01-08T17:41:54.631Z,43.92
2023-01-08T17:44:21.764Z,44.90
2023-01-08T17:46:49.393Z,44.78
2023-01-08T17:49:17.727Z,42.20
2023-01-08T17:51:45.906Z,46.60
2023-01-08T17:54:15.821Z,54.70
2023-01-08T17:56:44.172Z,44.78
2023-01-08T17:59:14.411Z,45.65
2023-01-08T18:01:41.921Z,47.35
2023-01-08T18:04:08.917Z,45.50
2023-01-08T18:06:36.119Z,47.95
2023-01-08T18:09:03.896Z,42.05
2023-01-08T18:11:31.273Z,42.25
2023-01-08T18:14:01.859Z,45.58
2023-01-08T18:16:31.794Z,48.45
2023-01-08T18:19:00.032Z,49.67
2023-01-08T18:21:28.468Z,63.42
2023-01-08T18:23:56.281Z,55.83
2023-01-08T18:26:23.674Z,66.55
2023-01-08T18:28:52.945Z,63.42
2023-01-08T18:31:21.898Z,59.30
2023-01-08T18:33:52.968Z,63.58
2023-01-08T18:36:21.187Z,67.22
2023-01-08T18:38:49.187Z,67.10
2023-01-08T18:41:38.809Z,61.50
2023-01-08T18:44:08.897Z,62.97
2023-01-08T18:46:37.088Z,77.15
2023-01-08T18:49:05.564Z,390.40
2023-01-08T18:51:33.010Z,101.90
2023-01-08T18:54:00.112Z,105.53
2023-01-08T18:56:32.336Z,99.05
2023-01-08T18:58:59.532Z,90.10
2023-01-08T19:01:27.834Z,125.88
2023-01-08T19:03:55.887Z,125.65
2023-01-08T19:06:23.495Z,110.10
2023-01-08T19:08:52.073Z,106.88
2023-01-08T19:11:19.595Z,111.40
2023-01-08T19:13:46.536Z,108.32
2023-01-08T19:16:18.349Z,110.80
2023-01-08T19:18:45.685Z,102.00
2023-01-08T19:21:15.021Z,108.07
2023-01-08T19:23:42.082Z,109.85
2023-01-08T19:26:10.150Z,98.85
2023-01-08T19:28:37.286Z,103.70
2023-01-08T19:31:04.876Z,109.88
2023-01-08T19:33:32.209Z,106.38
2023-01-08T19:36:12.634Z,94.90
2023-01-08T19:38:40.659Z,96.32
2023-01-08T19:41:30.169Z,93.93
2023-01-08T19:43:59.839Z,93.07
2023-01-08T19:46:27.368Z,117.75
2023-01-08T19:48:59.961Z,101.68
2023-01-08T19:51:32.078Z,92.85
2023-01-08T19:54:00.869Z,87.53
2023-01-08T19:56:29.072Z,90.60
2023-01-08T19:58:57.276Z,86.22
2023-01-08T20:01:28.091Z,73.88
2023-01-08T20:03:56.651Z,76.43
2023-01-08T20:06:26.305Z,77.03
2023-01-08T20:08:59.694Z,95.28
2023-01-08T20:11:29.118Z,87.57
2023-01-08T20:14:02.722Z,91.88
2023-01-08T20:16:30.702Z,92.15
2023-01-08T20:19:04.724Z,85.78
2023-01-08T20:21:34.410Z,82.07
2023-01-08T20:24:09.258Z,85.20
2023-01-08T20:26:38.166Z,87.90
2023-01-08T20:29:06.386Z,76.07
2023-01-08T20:31:35.009Z,86.53
2023-01-08T20:34:11.977Z,85.20
2023-01-08T20:36:43.091Z,89.05
2023-01-08T20:39:15.131Z,86.00
2023-01-08T20:41:50.282Z,84.50
2023-01-08T20:44:31.948Z,81.00
2023-01-08T20:47:00.781Z,107.80
2023-01-08T20:49:30.386Z,85.28
2023-01-08T20:51:59.545Z,84.90
2023-01-08T20:54:29.128Z,76.70
2023-01-08T20:56:58.692Z,84.65
2023-01-08T20:59:26.918Z,72.45
2023-01-08T21:01:54.575Z,72.15
2023-01-08T21:04:21.834Z,61.33
2023-01-08T21:06:49.132Z,68.03
2023-01-08T21:09:17.804Z,62.40
2023-01-08T21:11:45.220Z,63.67
2023-01-08T21:14:12.263Z,59.03
2023-01-08T21:16:40.547Z,56.90
2023-01-08T21:19:10.099Z,59.70
2023-01-08T21:21:40.683Z,60.97
2023-01-08T21:24:11.227Z,61.50
2023-01-08T21:26:39.414Z,56.25
2023-01-08T21:29:08.803Z,55.55
2023-01-08T21:31:37.335Z,54.75
2023-01-08T21:34:06.269Z,49.97
2023-01-08T21:36:33.514Z,54.22
2023-01-08T21:39:02.415Z,55.03
2023-01-08T21:41:49.376Z,52.13
2023-01-08T21:44:42.088Z,56.85
2023-01-08T21:49:40.498Z,55.42
2023-01-08T21:52:27.198Z,52.90
2023-01-08T21:54:54.191Z,55.05
2023-01-08T21:57:21.587Z,59.35
2023-01-08T21:59:50.707Z,57.75
2023-01-08T22:02:21.531Z,59.10
2023-01-08T22:04:49.030Z,59.53
2023-01-08T22:07:16.948Z,60.85
2023-01-08T22:09:43.972Z,62.17
2023-01-08T22:12:11.708Z,60.85
2023-01-08T22:14:38.671Z,54.83
2023-01-08T22:17:08.584Z,54.38
2023-01-08T22:19:38.847Z,54.75
2023-01-08T22:22:09.521Z,56.38
2023-01-08T22:24:38.070Z,55.30
2023-01-08T22:27:05.546Z,59.17
2023-01-08T22:29:32.523Z,57.63
2023-01-08T22:31:59.968Z,62.15
2023-01-08T22:34:32.149Z,53.92
2023-01-08T22:36:59.547Z,56.63
2023-01-08T22:39:26.898Z,56.53
2023-01-08T22:41:54.209Z,61.45
2023-01-08T22:44:21.169Z,55.00
2023-01-08T22:46:48.541Z,51.65
2023-01-08T22:49:15.701Z,55.83
2023-01-08T22:51:43.659Z,53.03
2023-01-08T22:54:13.585Z,52.63
2023-01-08T22:56:41.141Z,53.70
2023-01-08T22:59:08.163Z,56.13
2023-01-08T23:01:35.770Z,48.72
2023-01-08T23:04:02.901Z,54.03
2023-01-08T23:06:31.843Z,53.40
2023-01-08T23:08:59.733Z,51.00
2023-01-08T23:11:27.281Z,55.03
2023-01-08T23:13:55.057Z,53.97
2023-01-08T23:16:25.372Z,57.75
2023-01-08T23:18:54.717Z,53.25
2023-01-08T23:21:24.839Z,48.35
2023-01-08T23:23:52.264Z,56.55
2023-01-08T23:26:27.498Z,49.22
2023-01-08T23:28:56.407Z,55.80
2023-01-08T23:31:28.442Z,54.92
2023-01-08T23:33:55.983Z,52.47
2023-01-08T23:36:24.463Z,49.00
2023-01-08T23:38:54.785Z,48.55
2023-01-08T23:41:31.999Z,48.60
2023-01-08T23:44:11.860Z,48.45
2023-01-08T23:46:39.287Z,51.40
2023-01-08T23:49:07.191Z,47.47
2023-01-08T23:51:34.533Z,48.38
2023-01-08T23:54:01.563Z,55.83
2023-01-08T23:56:29.014Z,57.05
2023-01-08T23:58:57.775Z,50.75
